Time;durP1;ratioP1;P1;durP2;ratioP2;P2;SDS_P1;SDS_P2;PMS_P1;PMS_P2;Temp;Humidity;BMP_temperature;BMP_pressure;BME280_temperature;BME280_humidity;BME280_pressure;Samples;Min_cycle;Max_cycle;Signal;HPM_P1;HPM_P2
2024/02/05 00:06:30;;;;;;;4.00;2.10;;;;;;;4.60;100.00;98444.73;441827;1261;139103;-61
2024/02/05 00:16:37;;;;;;;3.60;2.20;;;;;;;4.57;100.00;98432.23;436569;1263;139842;-59
2024/02/05 00:26:43;;;;;;;2.60;1.50;;;;;;;4.56;100.00;98428.48;439061;1261;139770;-70
2024/02/05 00:36:49;;;;;;;1.90;1.80;;;;;;;4.56;100.00;98427.41;435813;1260;139320;-69
2024/02/05 00:46:54;;;;;;;3.20;2.10;;;;;;;4.54;100.00;98416.98;435928;1264;138260;-49
2024/02/05 00:57:01;;;;;;;2.50;2.20;;;;;;;4.50;100.00;98398.29;435617;1264;139212;-49
2024/02/05 01:07:08;;;;;;;3.00;2.40;;;;;;;4.46;100.00;98391.42;434255;1264;138912;-49
2024/02/05 01:17:16;;;;;;;4.40;3.00;;;;;;;4.44;100.00;98370.42;433476;1264;138756;-50
2024/02/05 01:27:22;;;;;;;3.40;3.10;;;;;;;4.40;100.00;98351.91;440161;1260;139905;-51
2024/02/05 01:37:28;;;;;;;3.10;2.80;;;;;;;4.41;100.00;98350.67;433473;1267;139501;-51
2024/02/05 01:47:35;;;;;;;3.10;2.90;;;;;;;4.40;100.00;98332.70;433742;1264;138864;-49
2024/02/05 01:57:41;;;;;;;2.90;2.40;;;;;;;4.42;100.00;98319.77;434497;1266;139619;-52
2024/02/05 02:07:48;;;;;;;2.30;2.10;;;;;;;4.42;100.00;98304.35;437243;1264;139167;-50
2024/02/05 02:17:57;;;;;;;1.90;1.80;;;;;;;4.43;100.00;98298.21;433423;1266;139449;-50
2024/02/05 02:28:04;;;;;;;3.70;2.30;;;;;;;4.41;100.00;98288.29;433729;1262;139632;-51
2024/02/05 02:38:16;;;;;;;2.00;1.90;;;;;;;4.39;100.00;98267.64;435127;1262;139498;-53
2024/02/05 02:48:22;;;;;;;1.80;1.70;;;;;;;4.39;100.00;98263.48;434320;1260;138775;-52
2024/02/05 02:58:29;;;;;;;2.20;1.90;;;;;;;4.38;100.00;98258.16;433681;1263;141573;-53
2024/02/05 03:08:35;;;;;;;2.00;1.90;;;;;;;4.37;100.00;98261.51;433330;1264;139338;-53
2024/02/05 03:18:41;;;;;;;2.50;2.30;;;;;;;4.35;100.00;98249.11;433604;1263;139002;-54
2024/02/05 03:28:47;;;;;;;1.60;1.50;;;;;;;4.34;100.00;98242.30;434709;1261;139531;-53
2024/02/05 03:38:53;;;;;;;1.60;1.50;;;;;;;4.34;100.00;98230.46;433117;1267;139105;-50
2024/02/05 03:49:01;;;;;;;1.80;1.70;;;;;;;4.35;100.00;98234.19;433349;1266;139312;-49
2024/02/05 03:59:09;;;;;;;1.70;1.50;;;;;;;4.39;100.00;98237.61;433423;1267;141849;-53
2024/02/05 04:09:18;;;;;;;2.10;1.60;;;;;;;4.41;100.00;98232.16;433549;1262;139516;-54
2024/02/05 04:19:24;;;;;;;1.50;1.40;;;;;;;4.41;100.00;98219.84;433739;1265;138888;-70
2024/02/05 04:29:30;;;;;;;1.60;1.50;;;;;;;4.41;100.00;98224.35;433486;1265;140065;-70
2024/02/05 04:39:36;;;;;;;;;;;;;;;4.42;100.00;98224.81;435116;1261;139087;-62
2024/02/05 04:49:43;;;;;;;1.70;1.60;;;;;;;4.41;100.00;98221.55;434424;1265;125891;-62
2024/02/05 04:59:49;;;;;;;1.40;1.30;;;;;;;4.41;100.00;98215.51;433630;1262;139852;-62
2024/02/05 05:09:55;;;;;;;0.90;0.90;;;;;;;4.40;100.00;98200.46;433464;1265;139737;-70
2024/02/05 05:20:02;;;;;;;2.00;1.20;;;;;;;4.40;100.00;98182.31;433388;1265;139580;-71
2024/02/05 05:30:10;;;;;;;1.40;1.30;;;;;;;4.41;100.00;98193.34;436987;1261;138926;-70
2024/02/05 05:40:16;;;;;;;1.60;1.30;;;;;;;4.44;100.00;98204.23;435589;1261;139163;-71
2024/02/05 05:50:22;;;;;;;1.00;1.00;;;;;;;4.48;100.00;98209.86;433445;1260;140082;-62
2024/02/05 06:00:31;;;;;;;2.50;1.10;;;;;;;4.51;100.00;98214.04;433543;1265;140190;-62
2024/02/05 06:10:37;;;;;;;2.50;1.00;;;;;;;4.54;100.00;98213.33;433832;1264;138504;-71
2024/02/05 06:20:46;;;;;;;0.90;0.90;;;;;;;4.57;100.00;98223.70;433570;1263;139574;-72
2024/02/05 06:30:52;;;;;;;1.20;1.20;;;;;;;4.62;100.00;98222.02;433829;1262;139344;-62
2024/02/05 06:40:58;;;;;;;2.30;1.60;;;;;;;4.69;100.00;98233.92;429857;1262;5109269;-62
2024/02/05 06:51:06;;;;;;;1.50;1.40;;;;;;;4.78;100.00;98247.73;436308;1262;139111;-54
2024/02/05 07:01:13;;;;;;;1.40;1.10;;;;;;;4.90;100.00;98256.19;435071;1262;138921;-53
2024/02/05 07:11:20;;;;;;;1.50;1.10;;;;;;;5.03;100.00;98260.27;435876;1262;139700;-57
2024/02/05 07:21:29;;;;;;;1.00;1.00;;;;;;;5.18;100.00;98267.31;433599;1265;138801;-57
2024/02/05 07:31:36;;;;;;;0.80;0.80;;;;;;;5.32;100.00;98270.64;434271;1263;139562;-68
2024/02/05 07:41:42;;;;;;;0.80;0.80;;;;;;;5.41;100.00;98273.34;434008;1260;138958;-68
2024/02/05 07:51:51;;;;;;;0.90;0.70;;;;;;;5.59;100.00;98275.31;433668;1262;139425;-69
2024/02/05 08:02:00;;;;;;;1.60;1.50;;;;;;;5.84;100.00;98275.28;433779;1264;139028;-68
2024/02/05 08:12:12;;;;;;;1.40;1.30;;;;;;;6.08;100.00;98293.04;434943;1265;139306;-70
2024/02/05 08:22:18;;;;;;;1.40;1.30;;;;;;;6.31;100.00;98307.85;436412;1261;139956;-64
2024/02/05 08:32:24;;;;;;;1.10;0.90;;;;;;;6.56;100.00;98328.41;438076;1262;139703;-62
2024/02/05 08:42:33;;;;;;;1.30;1.20;;;;;;;6.67;100.00;98348.02;435857;1263;139147;-63
2024/02/05 08:52:40;;;;;;;0.80;0.70;;;;;;;6.73;100.00;98350.61;434301;1262;138971;-63
2024/02/05 09:02:48;;;;;;;0.60;0.60;;;;;;;6.71;100.00;98360.84;438621;1261;138752;-65
2024/02/05 09:12:54;;;;;;;1.20;0.80;;;;;;;6.77;100.00;98368.58;437243;1261;139333;-65
2024/02/05 09:23:02;;;;;;;1.50;0.80;;;;;;;6.88;100.00;98372.20;435430;1261;138993;-68
2024/02/05 09:33:08;;;;;;;2.20;0.70;;;;;;;7.01;100.00;98377.09;434472;1261;138967;-63
2024/02/05 09:43:16;;;;;;;1.80;0.90;;;;;;;7.04;100.00;98382.41;434685;1261;141005;-64
2024/02/05 09:53:25;;;;;;;2.50;0.90;;;;;;;7.09;100.00;98375.49;435609;1261;139011;-60
2024/02/05 10:03:34;;;;;;;0.60;0.60;;;;;;;7.19;100.00;98375.83;436620;1260;138812;-61
2024/02/05 10:13:40;;;;;;;3.20;0.90;;;;;;;7.25;100.00;98384.98;433969;1264;138863;-58
2024/02/05 10:23:55;;;;;;;3.00;1.10;;;;;;;7.25;100.00;98393.16;433746;1265;139141;-65
2024/02/05 10:34:01;;;;;;;0.50;0.50;;;;;;;7.31;100.00;98383.55;433984;1264;139334;-64
2024/02/05 10:44:08;;;;;;;1.20;1.20;;;;;;;7.36;100.00;98374.68;434748;1265;138578;-64
2024/02/05 10:54:19;;;;;;;0.60;0.50;;;;;;;7.39;100.00;98380.72;434287;1265;139116;-68
2024/02/05 11:04:28;;;;;;;1.50;0.90;;;;;;;7.55;100.00;98356.80;434329;1261;140389;-65
2024/02/05 11:14:38;;;;;;;1.30;0.50;;;;;;;7.71;100.00;98353.22;433813;1262;138917;-63
2024/02/05 11:24:46;;;;;;;1.60;1.20;;;;;;;7.68;100.00;98367.00;434372;1262;139683;-65
2024/02/05 11:34:57;;;;;;;1.20;1.10;;;;;;;7.77;100.00;98366.37;436858;1262;139870;-61
2024/02/05 11:45:06;;;;;;;1.00;0.60;;;;;;;7.61;100.00;98373.46;434710;1261;141933;-66
2024/02/05 11:55:17;;;;;;;1.70;0.60;;;;;;;7.52;100.00;98369.18;435386;1264;139546;-64
2024/02/05 12:05:24;;;;;;;1.00;0.60;;;;;;;7.45;100.00;98370.73;436037;1265;139895;-62
2024/02/05 12:15:33;;;;;;;1.40;1.20;;;;;;;7.28;100.00;98367.36;435512;1262;140103;-61
2024/02/05 12:25:44;;;;;;;1.20;0.90;;;;;;;7.12;100.00;98376.13;437719;1262;139467;-60
2024/02/05 12:36:01;;;;;;;0.90;0.80;;;;;;;6.97;100.00;98375.97;434259;1262;140564;-64
2024/02/05 12:46:09;;;;;;;1.80;1.60;;;;;;;6.83;100.00;98375.14;433939;1265;139945;-62
2024/02/05 12:56:15;;;;;;;3.10;2.30;;;;;;;6.67;100.00;98369.39;435047;1265;139964;-63
2024/02/05 13:06:25;;;;;;;1.30;1.20;;;;;;;6.53;100.00;98375.73;433935;1265;139589;-63
2024/02/05 13:16:32;;;;;;;2.40;2.10;;;;;;;6.38;100.00;98391.89;435870;1265;138974;-74
2024/02/05 13:26:46;;;;;;;2.40;1.20;;;;;;;6.23;100.00;98395.08;436797;1265;139551;-69
2024/02/05 13:36:52;;;;;;;1.90;1.40;;;;;;;6.10;100.00;98399.59;435093;1265;139868;-64
2024/02/05 13:47:03;;;;;;;2.00;1.80;;;;;;;6.04;100.00;98408.66;434869;1262;139614;-64
2024/02/05 13:57:09;;;;;;;1.10;0.80;;;;;;;5.97;100.00;98410.09;434798;1266;198057;-67
2024/02/05 14:07:16;;;;;;;1.60;0.80;;;;;;;5.90;100.00;98422.88;434610;1265;139789;-66
2024/02/05 14:17:24;;;;;;;2.60;1.10;;;;;;;5.80;100.00;98430.81;434399;1262;139731;-64
2024/02/05 14:27:31;;;;;;;1.00;0.80;;;;;;;5.74;100.00;98440.69;434826;1262;139997;-63
2024/02/05 14:37:38;;;;;;;1.10;1.00;;;;;;;5.75;100.00;98437.52;434982;1262;140669;-61
2024/02/05 14:47:44;;;;;;;1.40;1.30;;;;;;;5.75;100.00;98433.17;435046;1263;139713;-62
2024/02/05 14:57:51;;;;;;;2.10;1.90;;;;;;;5.80;100.00;98430.48;435378;1262;139501;-60
2024/02/05 15:07:57;;;;;;;2.00;1.70;;;;;;;5.77;100.00;98428.22;434044;1263;139740;-59
2024/02/05 15:18:03;;;;;;;1.60;1.50;;;;;;;5.69;100.00;98440.68;433629;1265;140096;-59
2024/02/05 15:28:10;;;;;;;2.60;2.40;;;;;;;5.57;100.00;98447.31;433949;1262;139571;-59
2024/02/05 15:38:17;;;;;;;4.20;2.30;;;;;;;5.47;100.00;98447.40;435195;1263;140290;-54
2024/02/05 15:48:23;;;;;;;3.90;2.20;;;;;;;5.36;100.00;98448.94;438845;1265;139876;-61
2024/02/05 15:58:30;;;;;;;3.30;2.20;;;;;;;5.22;100.00;98452.88;437275;1262;139373;-61
2024/02/05 16:08:39;;;;;;;3.00;2.10;;;;;;;5.20;100.00;98466.91;435879;1265;141553;-60
2024/02/05 16:18:45;;;;;;;3.50;2.30;;;;;;;5.29;100.00;98469.64;435866;1265;141355;-62
2024/02/05 16:28:52;;;;;;;3.90;2.70;;;;;;;5.32;100.00;98461.98;434597;1263;139550;-58
2024/02/05 16:38:58;;;;;;;3.90;3.40;;;;;;;5.32;100.00;98460.48;434337;1266;139053;-57
2024/02/05 16:49:04;;;;;;;5.00;4.20;;;;;;;5.35;100.00;98456.14;434028;1264;139922;-63
2024/02/05 17:09:43;;;;;;;6.90;5.00;;;;;;;5.46;100.00;98452.35;433967;1256;957330;-58
2024/02/05 17:19:49;;;;;;;6.70;6.10;;;;;;;5.56;100.00;98443.03;434105;1261;139329;-67
2024/02/05 17:29:56;;;;;;;6.70;5.10;;;;;;;5.70;100.00;98432.26;435423;1260;140238;-60
2024/02/05 17:40:21;;;;;;;;;;;;;;;5.92;100.00;98433.51;438878;1260;139230;-58
2024/02/05 17:50:48;;;;;;;8.90;3.70;;;;;;;6.13;100.00;98424.93;434515;1262;127812;-63
2024/02/05 18:01:15;;;;;;;;;;;;;;;6.30;100.00;98422.46;434090;1263;139481;-69
2024/02/05 18:11:42;;;;;;;7.70;5.40;;;;;;;6.40;100.00;98433.30;436409;1257;125925;-60
2024/02/05 18:22:09;;;;;;;5.30;4.60;;;;;;;6.46;100.00;98436.38;434002;1265;138513;-62
2024/02/05 18:32:37;;;;;;;9.10;5.80;;;;;;;6.50;100.00;98432.30;435610;1260;139013;-62
2024/02/05 18:43:04;;;;;;;13.20;7.40;;;;;;;6.56;100.00;98437.66;432281;1262;5098609;-61
2024/02/05 18:53:29;;;;;;;;;;;;;;;6.60;100.00;98444.67;434501;1263;139619;-62
2024/02/05 19:03:56;;;;;;;7.00;5.20;;;;;;;6.61;100.00;98452.29;433480;1265;125801;-60
2024/02/05 19:14:24;;;;;;;9.10;6.80;;;;;;;6.55;100.00;98455.61;436217;1256;139098;-62
2024/02/05 19:24:51;;;;;;;13.50;6.60;;;;;;;6.50;100.00;98448.48;434071;1263;138955;-62
2024/02/05 19:35:18;;;;;;;13.50;7.40;;;;;;;6.45;100.00;98442.48;436297;1263;139339;-63
2024/02/05 19:45:45;;;;;;;14.80;6.10;;;;;;;6.43;100.00;98431.89;435794;1261;140032;-66
2024/02/05 19:56:11;;;;;;;15.30;7.20;;;;;;;6.40;100.00;98440.40;434311;1262;140351;-67
2024/02/05 20:06:38;;;;;;;10.10;6.70;;;;;;;6.38;100.00;98432.53;435742;1260;139833;-57
2024/02/05 20:17:08;;;;;;;13.50;6.60;;;;;;;6.38;100.00;98421.81;434839;1261;139660;-49
2024/02/05 20:27:37;;;;;;;12.90;6.60;;;;;;;6.39;100.00;98409.73;434944;1261;139420;-52
2024/02/05 20:38:04;;;;;;;13.10;6.10;;;;;;;6.43;100.00;98412.89;434340;1264;139996;-54
2024/02/05 20:48:31;;;;;;;14.30;6.60;;;;;;;6.52;100.00;98414.27;434290;1260;139297;-60
2024/02/05 20:58:37;;;;;;;10.80;5.00;;;;;;;6.60;100.00;98405.53;437190;1261;139422;-60
2024/02/05 21:08:45;;;;;;;10.80;4.60;;;;;;;6.66;100.00;98414.18;435211;1262;139286;-58
2024/02/05 21:18:50;;;;;;;;;;;;;;;6.73;100.00;98417.20;435695;1262;139445;-60
2024/02/05 21:29:01;;;;;;;11.90;5.90;;;;;;;6.79;100.00;98422.73;434709;1257;126569;-62
2024/02/05 21:39:08;;;;;;;14.60;5.70;;;;;;;6.84;100.00;98421.38;433548;1260;139947;-62
2024/02/05 21:49:15;;;;;;;12.80;6.90;;;;;;;6.89;100.00;98419.48;434711;1262;139914;-62
2024/02/05 21:59:21;;;;;;;14.70;6.50;;;;;;;6.92;100.00;98413.70;434336;1263;139113;-63
2024/02/05 22:09:27;;;;;;;12.60;5.80;;;;;;;6.96;100.00;98418.14;434964;1263;139876;-60
2024/02/05 22:19:33;;;;;;;9.40;5.30;;;;;;;7.00;100.00;98424.10;436455;1265;139917;-60
2024/02/05 22:29:40;;;;;;;11.80;5.60;;;;;;;7.06;100.00;98434.16;439842;1262;140479;-62
2024/02/05 22:39:46;;;;;;;10.40;5.20;;;;;;;7.10;100.00;98441.17;438325;1262;139949;-62
2024/02/05 22:49:53;;;;;;;13.40;5.50;;;;;;;7.16;100.00;98436.46;434536;1262;140551;-63
2024/02/05 23:00:00;;;;;;;12.20;5.40;;;;;;;7.21;100.00;98436.13;441387;1262;139881;-62
2024/02/05 23:10:09;;;;;;;8.90;6.00;;;;;;;7.26;100.00;98449.02;435596;1262;140284;-62
2024/02/05 23:20:14;;;;;;;;;;;;;;;7.31;100.00;98457.56;436619;1261;138753;-61
2024/02/05 23:30:21;;;;;;;12.80;6.20;;;;;;;7.33;100.00;98457.23;437454;1262;125373;-61
2024/02/05 23:40:27;;;;;;;16.10;6.30;;;;;;;7.35;100.00;98453.06;436934;1263;139411;-61
2024/02/05 23:50:33;;;;;;;10.10;5.30;;;;;;;7.37;100.00;98449.67;435208;1263;140127;-61
